الصفحة الرئيسية
METAR-TAF:

METAR-TAF

مطار :

Casino, أستراليا

دائرة عرض: 28-52-39S, خط طول: 153-03-07E, ارتفاع: 21 متر

مراقبة الطقس الحالي

تاريخ ووقت الإصدار 1ساعة و 0 دقيقة قبل الساعة 17:00UTC
ريح 1 عقدة من الجنوب الشرقي
درجة الحرارة 7°درجة مئوية
الرطوبة 93%
ضغط 1015 hPa

METAR: YCAS 221700Z AUTO 14001KT //// // ////// 07/06 Q1015

زمن: 04:00 (18:00 UTC)


TAF: مفقودة

أرصاد الطقس والتوقعات من أكثر من 4000 مطار (تقارير الطقس للمطار METAR والتنبؤ بالطقس بالمطارTAF).

المحطات المتاحة هي النقط الصفراء والحمراء على الخريطة.

حرك المؤشر فوق النقطة لمعرفة اسم المحطة.

ثم انقر لمعرفة أرصاد وتوقعات الطقس.

لتغيير الخارطة: اضغط على الأزرار الخضراء مع رمز الصليب الأسود للتكبير. على الزر الأخضر مع شرطة للتصغير، أو على الأسهم الخضراء للخرائط المجاورة.


METAR-TAF: